sensor_id;sensor_type;location;lat;lon;timestamp;P1;durP1;ratioP1;P2;durP2;ratioP2
31537;SDS011;18147;51.952;6.146;2023-02-03T00:01:53;37.75;;;5.47;;
31537;SDS011;18147;51.952;6.146;2023-02-03T00:04:18;29.52;;;5.88;;
31537;SDS011;18147;51.952;6.146;2023-02-03T00:06:44;28.00;;;4.60;;
31537;SDS011;18147;51.952;6.146;2023-02-03T00:09:09;19.95;;;4.95;;
31537;SDS011;18147;51.952;6.146;2023-02-03T00:11:35;27.48;;;5.25;;
31537;SDS011;18147;51.952;6.146;2023-02-03T00:14:01;18.30;;;4.03;;
31537;SDS011;18147;51.952;6.146;2023-02-03T00:16:26;25.38;;;4.90;;
31537;SDS011;18147;51.952;6.146;2023-02-03T00:18:52;13.00;;;3.75;;
31537;SDS011;18147;51.952;6.146;2023-02-03T00:21:17;28.05;;;4.38;;
31537;SDS011;18147;51.952;6.146;2023-02-03T00:23:43;14.63;;;3.55;;
31537;SDS011;18147;51.952;6.146;2023-02-03T00:26:09;18.13;;;4.00;;
31537;SDS011;18147;51.952;6.146;2023-02-03T00:28:37;17.98;;;5.72;;
31537;SDS011;18147;51.952;6.146;2023-02-03T00:31:02;23.05;;;6.10;;
31537;SDS011;18147;51.952;6.146;2023-02-03T00:33:28;22.48;;;4.18;;
31537;SDS011;18147;51.952;6.146;2023-02-03T00:35:54;14.13;;;3.90;;
31537;SDS011;18147;51.952;6.146;2023-02-03T00:38:19;18.85;;;3.80;;
31537;SDS011;18147;51.952;6.146;2023-02-03T00:40:54;17.80;;;3.95;;
31537;SDS011;18147;51.952;6.146;2023-02-03T00:43:20;16.63;;;3.80;;
31537;SDS011;18147;51.952;6.146;2023-02-03T00:45:45;19.15;;;4.40;;
31537;SDS011;18147;51.952;6.146;2023-02-03T00:48:11;25.02;;;4.10;;
31537;SDS011;18147;51.952;6.146;2023-02-03T00:50:36;19.10;;;4.45;;
31537;SDS011;18147;51.952;6.146;2023-02-03T00:53:02;15.65;;;3.95;;
31537;SDS011;18147;51.952;6.146;2023-02-03T00:55:27;18.13;;;3.88;;
31537;SDS011;18147;51.952;6.146;2023-02-03T00:57:53;18.88;;;3.75;;
31537;SDS011;18147;51.952;6.146;2023-02-03T01:00:18;11.02;;;3.42;;
31537;SDS011;18147;51.952;6.146;2023-02-03T01:02:44;15.77;;;3.83;;
31537;SDS011;18147;51.952;6.146;2023-02-03T01:05:10;22.88;;;4.15;;
31537;SDS011;18147;51.952;6.146;2023-02-03T01:07:36;17.05;;;4.90;;
31537;SDS011;18147;51.952;6.146;2023-02-03T01:10:04;25.25;;;3.90;;
31537;SDS011;18147;51.952;6.146;2023-02-03T01:12:31;14.25;;;4.10;;
31537;SDS011;18147;51.952;6.146;2023-02-03T01:14:58;21.42;;;4.60;;
31537;SDS011;18147;51.952;6.146;2023-02-03T01:17:23;18.08;;;4.50;;
31537;SDS011;18147;51.952;6.146;2023-02-03T01:19:51;22.40;;;5.68;;
31537;SDS011;18147;51.952;6.146;2023-02-03T01:22:17;18.67;;;3.88;;
31537;SDS011;18147;51.952;6.146;2023-02-03T01:24:43;17.88;;;3.72;;
31537;SDS011;18147;51.952;6.146;2023-02-03T01:27:10;17.80;;;5.85;;
31537;SDS011;18147;51.952;6.146;2023-02-03T01:29:42;24.63;;;4.38;;
31537;SDS011;18147;51.952;6.146;2023-02-03T01:32:07;17.88;;;4.75;;
31537;SDS011;18147;51.952;6.146;2023-02-03T01:34:34;18.02;;;4.22;;
31537;SDS011;18147;51.952;6.146;2023-02-03T01:37:00;25.38;;;5.35;;
31537;SDS011;18147;51.952;6.146;2023-02-03T01:39:26;17.15;;;4.25;;
31537;SDS011;18147;51.952;6.146;2023-02-03T01:41:53;18.77;;;5.00;;
31537;SDS011;18147;51.952;6.146;2023-02-03T01:47:23;16.67;;;3.95;;
31537;SDS011;18147;51.952;6.146;2023-02-03T01:50:07;14.88;;;4.20;;
31537;SDS011;18147;51.952;6.146;2023-02-03T01:52:39;24.52;;;4.32;;
31537;SDS011;18147;51.952;6.146;2023-02-03T01:55:07;18.33;;;3.65;;
31537;SDS011;18147;51.952;6.146;2023-02-03T01:57:35;21.23;;;4.57;;
31537;SDS011;18147;51.952;6.146;2023-02-03T02:00:05;23.45;;;5.20;;
31537;SDS011;18147;51.952;6.146;2023-02-03T02:02:40;22.77;;;4.85;;
31537;SDS011;18147;51.952;6.146;2023-02-03T02:05:13;17.80;;;3.75;;
31537;SDS011;18147;51.952;6.146;2023-02-03T02:07:48;19.08;;;3.53;;
31537;SDS011;18147;51.952;6.146;2023-02-03T02:10:14;19.65;;;4.25;;
31537;SDS011;18147;51.952;6.146;2023-02-03T02:12:40;10.23;;;4.05;;
31537;SDS011;18147;51.952;6.146;2023-02-03T02:15:06;16.48;;;3.47;;
31537;SDS011;18147;51.952;6.146;2023-02-03T02:17:38;12.50;;;3.63;;
31537;SDS011;18147;51.952;6.146;2023-02-03T02:20:22;16.77;;;4.10;;
31537;SDS011;18147;51.952;6.146;2023-02-03T02:23:03;21.05;;;3.70;;
31537;SDS011;18147;51.952;6.146;2023-02-03T02:26:05;19.83;;;3.55;;
31537;SDS011;18147;51.952;6.146;2023-02-03T02:34:49;17.30;;;5.25;;
31537;SDS011;18147;51.952;6.146;2023-02-03T02:40:22;9.82;;;3.22;;
31537;SDS011;18147;51.952;6.146;2023-02-03T02:48:19;9.93;;;3.03;;
31537;SDS011;18147;51.952;6.146;2023-02-03T02:50:47;30.63;;;4.90;;
31537;SDS011;18147;51.952;6.146;2023-02-03T02:53:16;17.85;;;3.30;;
31537;SDS011;18147;51.952;6.146;2023-02-03T02:55:47;12.13;;;3.88;;
31537;SDS011;18147;51.952;6.146;2023-02-03T02:58:14;13.05;;;3.58;;
31537;SDS011;18147;51.952;6.146;2023-02-03T03:00:42;20.42;;;3.80;;
31537;SDS011;18147;51.952;6.146;2023-02-03T03:03:17;14.00;;;3.42;;
31537;SDS011;18147;51.952;6.146;2023-02-03T03:05:56;19.73;;;3.53;;
31537;SDS011;18147;51.952;6.146;2023-02-03T03:08:32;22.05;;;3.83;;
31537;SDS011;18147;51.952;6.146;2023-02-03T03:11:09;12.27;;;3.17;;
31537;SDS011;18147;51.952;6.146;2023-02-03T03:13:40;13.85;;;3.03;;
31537;SDS011;18147;51.952;6.146;2023-02-03T03:16:09;7.60;;;2.83;;
31537;SDS011;18147;51.952;6.146;2023-02-03T03:18:48;7.90;;;3.40;;
31537;SDS011;18147;51.952;6.146;2023-02-03T03:21:28;11.48;;;3.70;;
31537;SDS011;18147;51.952;6.146;2023-02-03T03:24:00;12.80;;;2.60;;
31537;SDS011;18147;51.952;6.146;2023-02-03T03:26:35;11.45;;;3.40;;
31537;SDS011;18147;51.952;6.146;2023-02-03T03:29:20;10.38;;;3.00;;
31537;SDS011;18147;51.952;6.146;2023-02-03T03:31:50;9.40;;;2.83;;
31537;SDS011;18147;51.952;6.146;2023-02-03T03:34:16;12.85;;;3.58;;
31537;SDS011;18147;51.952;6.146;2023-02-03T03:36:54;19.17;;;3.22;;
31537;SDS011;18147;51.952;6.146;2023-02-03T03:42:18;12.27;;;2.63;;
31537;SDS011;18147;51.952;6.146;2023-02-03T03:45:03;13.57;;;2.90;;
31537;SDS011;18147;51.952;6.146;2023-02-03T03:47:34;7.05;;;2.55;;
31537;SDS011;18147;51.952;6.146;2023-02-03T03:52:43;11.73;;;3.35;;
31537;SDS011;18147;51.952;6.146;2023-02-03T03:55:12;8.55;;;2.78;;
31537;SDS011;18147;51.952;6.146;2023-02-03T03:57:42;23.58;;;3.80;;
31537;SDS011;18147;51.952;6.146;2023-02-03T04:00:16;14.98;;;4.25;;
31537;SDS011;18147;51.952;6.146;2023-02-03T04:02:43;18.45;;;4.03;;
31537;SDS011;18147;51.952;6.146;2023-02-03T04:05:16;16.95;;;3.22;;
31537;SDS011;18147;51.952;6.146;2023-02-03T04:07:43;16.52;;;3.35;;
31537;SDS011;18147;51.952;6.146;2023-02-03T04:10:31;11.90;;;3.55;;
31537;SDS011;18147;51.952;6.146;2023-02-03T04:15:28;25.95;;;3.50;;
31537;SDS011;18147;51.952;6.146;2023-02-03T04:17:54;17.17;;;3.50;;
31537;SDS011;18147;51.952;6.146;2023-02-03T04:20:21;18.85;;;2.97;;
31537;SDS011;18147;51.952;6.146;2023-02-03T04:22:47;11.68;;;2.70;;
31537;SDS011;18147;51.952;6.146;2023-02-03T04:25:12;21.00;;;3.58;;
31537;SDS011;18147;51.952;6.146;2023-02-03T04:27:38;15.75;;;3.47;;
31537;SDS011;18147;51.952;6.146;2023-02-03T04:30:03;7.22;;;2.78;;
31537;SDS011;18147;51.952;6.146;2023-02-03T04:32:29;12.18;;;2.55;;
31537;SDS011;18147;51.952;6.146;2023-02-03T04:34:55;6.50;;;3.00;;
31537;SDS011;18147;51.952;6.146;2023-02-03T04:37:22;22.23;;;3.60;;
31537;SDS011;18147;51.952;6.146;2023-02-03T04:39:48;14.52;;;2.88;;
31537;SDS011;18147;51.952;6.146;2023-02-03T04:42:15;7.38;;;2.55;;
31537;SDS011;18147;51.952;6.146;2023-02-03T04:44:41;6.32;;;2.47;;
31537;SDS011;18147;51.952;6.146;2023-02-03T04:47:06;15.63;;;2.75;;
31537;SDS011;18147;51.952;6.146;2023-02-03T04:49:32;10.68;;;3.00;;
31537;SDS011;18147;51.952;6.146;2023-02-03T04:51:57;12.02;;;2.50;;
31537;SDS011;18147;51.952;6.146;2023-02-03T04:54:22;11.65;;;2.72;;
31537;SDS011;18147;51.952;6.146;2023-02-03T04:56:48;12.82;;;2.83;;
31537;SDS011;18147;51.952;6.146;2023-02-03T04:59:13;8.55;;;2.08;;
31537;SDS011;18147;51.952;6.146;2023-02-03T05:01:39;14.00;;;2.83;;
31537;SDS011;18147;51.952;6.146;2023-02-03T05:04:04;18.02;;;3.78;;
31537;SDS011;18147;51.952;6.146;2023-02-03T05:06:30;9.02;;;2.20;;
31537;SDS011;18147;51.952;6.146;2023-02-03T05:08:58;13.05;;;2.95;;
31537;SDS011;18147;51.952;6.146;2023-02-03T05:11:24;10.20;;;2.88;;
31537;SDS011;18147;51.952;6.146;2023-02-03T05:13:49;7.60;;;2.72;;
31537;SDS011;18147;51.952;6.146;2023-02-03T05:16:15;16.35;;;2.50;;
31537;SDS011;18147;51.952;6.146;2023-02-03T05:18:41;16.58;;;2.53;;
31537;SDS011;18147;51.952;6.146;2023-02-03T05:21:06;18.17;;;2.65;;
31537;SDS011;18147;51.952;6.146;2023-02-03T05:23:32;11.98;;;2.72;;
31537;SDS011;18147;51.952;6.146;2023-02-03T05:25:57;19.65;;;3.10;;
31537;SDS011;18147;51.952;6.146;2023-02-03T05:28:23;16.52;;;3.13;;
31537;SDS011;18147;51.952;6.146;2023-02-03T05:30:48;21.63;;;4.22;;
31537;SDS011;18147;51.952;6.146;2023-02-03T05:33:14;15.55;;;4.10;;
31537;SDS011;18147;51.952;6.146;2023-02-03T05:35:39;10.52;;;2.78;;
31537;SDS011;18147;51.952;6.146;2023-02-03T05:38:05;22.63;;;2.85;;
31537;SDS011;18147;51.952;6.146;2023-02-03T05:40:30;18.23;;;3.15;;
31537;SDS011;18147;51.952;6.146;2023-02-03T05:43:14;8.30;;;2.40;;
31537;SDS011;18147;51.952;6.146;2023-02-03T05:45:40;11.95;;;2.28;;
31537;SDS011;18147;51.952;6.146;2023-02-03T05:48:05;9.35;;;2.55;;
31537;SDS011;18147;51.952;6.146;2023-02-03T05:50:31;17.35;;;3.22;;
31537;SDS011;18147;51.952;6.146;2023-02-03T05:53:05;17.77;;;3.47;;
31537;SDS011;18147;51.952;6.146;2023-02-03T05:55:31;11.48;;;2.50;;
31537;SDS011;18147;51.952;6.146;2023-02-03T05:58:03;19.52;;;3.85;;
31537;SDS011;18147;51.952;6.146;2023-02-03T06:00:29;18.73;;;4.22;;
31537;SDS011;18147;51.952;6.146;2023-02-03T06:02:56;12.05;;;2.50;;
31537;SDS011;18147;51.952;6.146;2023-02-03T06:05:23;10.05;;;2.22;;
31537;SDS011;18147;51.952;6.146;2023-02-03T06:07:50;16.15;;;4.72;;
31537;SDS011;18147;51.952;6.146;2023-02-03T06:10:16;9.65;;;2.25;;
31537;SDS011;18147;51.952;6.146;2023-02-03T06:12:42;10.65;;;3.50;;
31537;SDS011;18147;51.952;6.146;2023-02-03T06:15:09;15.68;;;3.20;;
31537;SDS011;18147;51.952;6.146;2023-02-03T06:17:36;10.23;;;2.95;;
31537;SDS011;18147;51.952;6.146;2023-02-03T06:20:03;10.50;;;3.28;;
31537;SDS011;18147;51.952;6.146;2023-02-03T06:22:32;16.17;;;3.00;;
31537;SDS011;18147;51.952;6.146;2023-02-03T06:24:58;8.77;;;2.80;;
31537;SDS011;18147;51.952;6.146;2023-02-03T06:27:25;10.05;;;2.58;;
31537;SDS011;18147;51.952;6.146;2023-02-03T06:29:50;11.73;;;2.67;;
31537;SDS011;18147;51.952;6.146;2023-02-03T06:32:16;22.08;;;4.80;;
31537;SDS011;18147;51.952;6.146;2023-02-03T06:34:44;20.10;;;4.40;;
31537;SDS011;18147;51.952;6.146;2023-02-03T06:37:09;18.60;;;2.83;;
31537;SDS011;18147;51.952;6.146;2023-02-03T06:39:34;15.13;;;3.35;;
31537;SDS011;18147;51.952;6.146;2023-02-03T06:42:01;19.08;;;3.15;;
31537;SDS011;18147;51.952;6.146;2023-02-03T06:44:29;14.82;;;3.40;;
31537;SDS011;18147;51.952;6.146;2023-02-03T06:46:54;13.98;;;2.80;;
31537;SDS011;18147;51.952;6.146;2023-02-03T06:49:20;12.00;;;3.45;;
31537;SDS011;18147;51.952;6.146;2023-02-03T06:51:47;14.35;;;4.05;;
31537;SDS011;18147;51.952;6.146;2023-02-03T06:54:12;14.90;;;3.50;;
31537;SDS011;18147;51.952;6.146;2023-02-03T06:56:38;18.70;;;5.18;;
31537;SDS011;18147;51.952;6.146;2023-02-03T06:59:03;17.30;;;3.17;;
31537;SDS011;18147;51.952;6.146;2023-02-03T07:01:30;16.55;;;3.35;;
31537;SDS011;18147;51.952;6.146;2023-02-03T07:03:56;11.18;;;3.47;;
31537;SDS011;18147;51.952;6.146;2023-02-03T07:06:26;25.15;;;3.63;;
31537;SDS011;18147;51.952;6.146;2023-02-03T07:09:01;14.07;;;3.53;;
31537;SDS011;18147;51.952;6.146;2023-02-03T07:11:29;14.27;;;3.20;;
31537;SDS011;18147;51.952;6.146;2023-02-03T07:13:55;12.77;;;3.30;;
31537;SDS011;18147;51.952;6.146;2023-02-03T07:16:20;21.13;;;3.92;;
31537;SDS011;18147;51.952;6.146;2023-02-03T07:18:46;20.98;;;4.38;;
31537;SDS011;18147;51.952;6.146;2023-02-03T07:21:12;14.38;;;3.85;;
31537;SDS011;18147;51.952;6.146;2023-02-03T07:23:38;15.93;;;4.45;;
31537;SDS011;18147;51.952;6.146;2023-02-03T07:26:04;14.05;;;3.22;;
31537;SDS011;18147;51.952;6.146;2023-02-03T07:28:31;19.65;;;4.70;;
31537;SDS011;18147;51.952;6.146;2023-02-03T07:30:57;15.88;;;3.42;;
31537;SDS011;18147;51.952;6.146;2023-02-03T07:33:23;15.30;;;4.22;;
31537;SDS011;18147;51.952;6.146;2023-02-03T07:35:52;12.10;;;3.78;;
31537;SDS011;18147;51.952;6.146;2023-02-03T07:38:22;21.50;;;4.85;;
31537;SDS011;18147;51.952;6.146;2023-02-03T07:40:49;28.15;;;4.05;;
31537;SDS011;18147;51.952;6.146;2023-02-03T07:43:22;13.75;;;3.28;;
31537;SDS011;18147;51.952;6.146;2023-02-03T07:45:48;19.38;;;3.97;;
31537;SDS011;18147;51.952;6.146;2023-02-03T07:48:14;22.08;;;3.70;;
31537;SDS011;18147;51.952;6.146;2023-02-03T07:50:41;23.38;;;4.68;;
31537;SDS011;18147;51.952;6.146;2023-02-03T07:53:09;11.57;;;3.47;;
31537;SDS011;18147;51.952;6.146;2023-02-03T07:55:38;16.05;;;3.50;;
31537;SDS011;18147;51.952;6.146;2023-02-03T07:58:06;24.35;;;6.70;;
31537;SDS011;18147;51.952;6.146;2023-02-03T08:00:32;26.67;;;4.35;;
31537;SDS011;18147;51.952;6.146;2023-02-03T08:02:58;14.05;;;3.40;;
31537;SDS011;18147;51.952;6.146;2023-02-03T08:05:24;10.63;;;3.33;;
31537;SDS011;18147;51.952;6.146;2023-02-03T08:07:49;21.35;;;3.40;;
31537;SDS011;18147;51.952;6.146;2023-02-03T08:10:15;19.17;;;4.45;;
31537;SDS011;18147;51.952;6.146;2023-02-03T08:12:42;12.35;;;3.50;;
31537;SDS011;18147;51.952;6.146;2023-02-03T08:15:15;20.95;;;3.55;;
31537;SDS011;18147;51.952;6.146;2023-02-03T08:17:41;14.18;;;2.60;;
31537;SDS011;18147;51.952;6.146;2023-02-03T08:20:08;17.38;;;3.33;;
31537;SDS011;18147;51.952;6.146;2023-02-03T08:22:35;13.15;;;3.65;;
31537;SDS011;18147;51.952;6.146;2023-02-03T08:25:00;25.60;;;4.40;;
31537;SDS011;18147;51.952;6.146;2023-02-03T08:27:26;26.83;;;3.83;;
31537;SDS011;18147;51.952;6.146;2023-02-03T08:29:51;12.10;;;3.25;;
31537;SDS011;18147;51.952;6.146;2023-02-03T08:32:19;15.30;;;4.25;;
31537;SDS011;18147;51.952;6.146;2023-02-03T08:34:46;18.48;;;4.50;;
31537;SDS011;18147;51.952;6.146;2023-02-03T08:37:13;18.98;;;4.93;;
31537;SDS011;18147;51.952;6.146;2023-02-03T08:39:40;14.30;;;4.13;;
31537;SDS011;18147;51.952;6.146;2023-02-03T08:42:05;14.85;;;3.40;;
31537;SDS011;18147;51.952;6.146;2023-02-03T08:44:31;15.00;;;3.55;;
31537;SDS011;18147;51.952;6.146;2023-02-03T08:46:57;17.30;;;3.80;;
31537;SDS011;18147;51.952;6.146;2023-02-03T08:49:24;22.65;;;4.05;;
31537;SDS011;18147;51.952;6.146;2023-02-03T08:51:51;20.08;;;4.45;;
31537;SDS011;18147;51.952;6.146;2023-02-03T08:54:17;18.30;;;3.13;;
31537;SDS011;18147;51.952;6.146;2023-02-03T08:56:43;11.95;;;2.90;;
31537;SDS011;18147;51.952;6.146;2023-02-03T08:59:08;12.38;;;3.30;;
31537;SDS011;18147;51.952;6.146;2023-02-03T09:01:34;11.05;;;3.28;;
31537;SDS011;18147;51.952;6.146;2023-02-03T09:04:00;17.88;;;3.60;;
31537;SDS011;18147;51.952;6.146;2023-02-03T09:06:28;17.85;;;4.45;;
31537;SDS011;18147;51.952;6.146;2023-02-03T09:08:55;17.63;;;3.65;;
31537;SDS011;18147;51.952;6.146;2023-02-03T09:11:21;16.85;;;3.50;;
31537;SDS011;18147;51.952;6.146;2023-02-03T09:13:47;11.38;;;3.72;;
31537;SDS011;18147;51.952;6.146;2023-02-03T09:16:15;15.85;;;5.13;;
31537;SDS011;18147;51.952;6.146;2023-02-03T09:18:42;15.52;;;2.88;;
31537;SDS011;18147;51.952;6.146;2023-02-03T09:21:08;13.75;;;3.45;;
31537;SDS011;18147;51.952;6.146;2023-02-03T09:23:38;12.07;;;3.92;;
31537;SDS011;18147;51.952;6.146;2023-02-03T09:26:05;9.95;;;3.00;;
31537;SDS011;18147;51.952;6.146;2023-02-03T09:28:32;20.80;;;5.00;;
31537;SDS011;18147;51.952;6.146;2023-02-03T09:31:02;15.07;;;3.60;;
31537;SDS011;18147;51.952;6.146;2023-02-03T09:33:29;8.25;;;3.05;;
31537;SDS011;18147;51.952;6.146;2023-02-03T09:35:55;11.18;;;3.72;;
31537;SDS011;18147;51.952;6.146;2023-02-03T09:38:22;12.35;;;3.33;;
31537;SDS011;18147;51.952;6.146;2023-02-03T09:40:52;10.75;;;3.10;;
31537;SDS011;18147;51.952;6.146;2023-02-03T09:46:11;14.38;;;3.40;;
31537;SDS011;18147;51.952;6.146;2023-02-03T09:48:43;14.95;;;4.18;;
31537;SDS011;18147;51.952;6.146;2023-02-03T09:51:22;16.75;;;3.33;;
31537;SDS011;18147;51.952;6.146;2023-02-03T09:53:57;21.48;;;4.20;;
31537;SDS011;18147;51.952;6.146;2023-02-03T09:56:30;9.75;;;3.53;;
31537;SDS011;18147;51.952;6.146;2023-02-03T09:58:57;13.40;;;3.03;;
31537;SDS011;18147;51.952;6.146;2023-02-03T10:01:24;13.98;;;3.00;;
31537;SDS011;18147;51.952;6.146;2023-02-03T10:04:19;16.30;;;3.28;;
31537;SDS011;18147;51.952;6.146;2023-02-03T10:07:22;10.32;;;3.42;;
31537;SDS011;18147;51.952;6.146;2023-02-03T10:11:00;12.63;;;3.15;;
31537;SDS011;18147;51.952;6.146;2023-02-03T10:13:23;16.35;;;3.40;;
31537;SDS011;18147;51.952;6.146;2023-02-03T10:16:05;15.20;;;3.28;;
31537;SDS011;18147;51.952;6.146;2023-02-03T10:18:40;25.60;;;4.65;;
31537;SDS011;18147;51.952;6.146;2023-02-03T10:24:08;15.82;;;4.03;;
31537;SDS011;18147;51.952;6.146;2023-02-03T10:26:37;13.20;;;3.67;;
31537;SDS011;18147;51.952;6.146;2023-02-03T10:29:07;11.52;;;2.95;;
31537;SDS011;18147;51.952;6.146;2023-02-03T10:31:40;17.35;;;3.28;;
31537;SDS011;18147;51.952;6.146;2023-02-03T10:34:08;12.82;;;3.72;;
31537;SDS011;18147;51.952;6.146;2023-02-03T10:36:55;16.65;;;3.10;;
31537;SDS011;18147;51.952;6.146;2023-02-03T10:42:07;20.15;;;5.18;;
31537;SDS011;18147;51.952;6.146;2023-02-03T10:44:36;12.88;;;3.85;;
31537;SDS011;18147;51.952;6.146;2023-02-03T10:47:19;17.23;;;3.53;;
31537;SDS011;18147;51.952;6.146;2023-02-03T10:49:45;7.80;;;3.63;;
31537;SDS011;18147;51.952;6.146;2023-02-03T10:52:24;11.98;;;3.85;;
31537;SDS011;18147;51.952;6.146;2023-02-03T10:54:58;10.73;;;3.40;;
31537;SDS011;18147;51.952;6.146;2023-02-03T10:57:23;15.82;;;5.70;;
31537;SDS011;18147;51.952;6.146;2023-02-03T10:59:51;14.00;;;3.42;;
31537;SDS011;18147;51.952;6.146;2023-02-03T11:02:29;27.70;;;5.85;;
31537;SDS011;18147;51.952;6.146;2023-02-03T11:07:42;16.52;;;4.53;;
31537;SDS011;18147;51.952;6.146;2023-02-03T11:10:28;12.40;;;3.15;;
31537;SDS011;18147;51.952;6.146;2023-02-03T11:15:44;12.65;;;3.95;;
31537;SDS011;18147;51.952;6.146;2023-02-03T11:26:25;9.65;;;2.67;;
31537;SDS011;18147;51.952;6.146;2023-02-03T11:28:55;9.88;;;2.60;;
31537;SDS011;18147;51.952;6.146;2023-02-03T11:31:31;9.43;;;3.63;;
31537;SDS011;18147;51.952;6.146;2023-02-03T11:34:06;8.68;;;2.88;;
31537;SDS011;18147;51.952;6.146;2023-02-03T11:36:40;10.50;;;2.95;;
31537;SDS011;18147;51.952;6.146;2023-02-03T11:39:10;12.05;;;3.65;;
31537;SDS011;18147;51.952;6.146;2023-02-03T11:41:42;12.02;;;2.85;;
31537;SDS011;18147;51.952;6.146;2023-02-03T11:46:45;8.07;;;3.47;;
31537;SDS011;18147;51.952;6.146;2023-02-03T12:03:54;10.10;;;2.65;;
31537;SDS011;18147;51.952;6.146;2023-02-03T12:09:06;17.20;;;2.67;;
31537;SDS011;18147;51.952;6.146;2023-02-03T12:11:56;6.53;;;2.33;;
31537;SDS011;18147;51.952;6.146;2023-02-03T12:14:46;9.40;;;2.47;;
31537;SDS011;18147;51.952;6.146;2023-02-03T12:17:25;8.23;;;2.67;;
31537;SDS011;18147;51.952;6.146;2023-02-03T12:28:34;12.63;;;3.05;;
31537;SDS011;18147;51.952;6.146;2023-02-03T12:31:29;8.05;;;2.90;;
31537;SDS011;18147;51.952;6.146;2023-02-03T12:34:18;14.23;;;2.75;;
31537;SDS011;18147;51.952;6.146;2023-02-03T12:37:02;13.10;;;3.35;;
31537;SDS011;18147;51.952;6.146;2023-02-03T12:39:40;11.95;;;2.80;;
31537;SDS011;18147;51.952;6.146;2023-02-03T12:45:10;14.30;;;3.80;;
31537;SDS011;18147;51.952;6.146;2023-02-03T12:47:44;23.33;;;4.57;;
31537;SDS011;18147;51.952;6.146;2023-02-03T12:52:45;10.60;;;2.95;;
31537;SDS011;18147;51.952;6.146;2023-02-03T13:00:50;10.15;;;3.33;;
31537;SDS011;18147;51.952;6.146;2023-02-03T13:03:29;12.57;;;4.28;;
31537;SDS011;18147;51.952;6.146;2023-02-03T13:06:10;16.95;;;3.70;;
31537;SDS011;18147;51.952;6.146;2023-02-03T13:11:25;16.80;;;4.45;;
31537;SDS011;18147;51.952;6.146;2023-02-03T13:14:00;24.05;;;4.72;;
31537;SDS011;18147;51.952;6.146;2023-02-03T13:16:29;16.10;;;5.10;;
31537;SDS011;18147;51.952;6.146;2023-02-03T13:19:01;20.58;;;3.85;;
31537;SDS011;18147;51.952;6.146;2023-02-03T13:21:29;14.50;;;3.53;;
31537;SDS011;18147;51.952;6.146;2023-02-03T13:23:55;17.48;;;3.67;;
31537;SDS011;18147;51.952;6.146;2023-02-03T13:32:01;20.27;;;4.00;;
31537;SDS011;18147;51.952;6.146;2023-02-03T13:42:52;25.88;;;4.53;;
31537;SDS011;18147;51.952;6.146;2023-02-03T13:45:30;25.95;;;4.60;;
31537;SDS011;18147;51.952;6.146;2023-02-03T13:50:37;20.08;;;5.10;;
31537;SDS011;18147;51.952;6.146;2023-02-03T13:53:14;24.38;;;4.20;;
31537;SDS011;18147;51.952;6.146;2023-02-03T13:55:44;20.25;;;4.25;;
31537;SDS011;18147;51.952;6.146;2023-02-03T13:58:23;29.05;;;5.70;;
31537;SDS011;18147;51.952;6.146;2023-02-03T14:05:49;20.63;;;5.05;;
31537;SDS011;18147;51.952;6.146;2023-02-03T14:13:54;28.08;;;4.75;;
31537;SDS011;18147;51.952;6.146;2023-02-03T14:16:48;24.85;;;5.72;;
31537;SDS011;18147;51.952;6.146;2023-02-03T14:24:17;34.17;;;4.35;;
31537;SDS011;18147;51.952;6.146;2023-02-03T14:26:48;28.00;;;5.53;;
31537;SDS011;18147;51.952;6.146;2023-02-03T14:29:23;22.63;;;4.57;;
31537;SDS011;18147;51.952;6.146;2023-02-03T14:31:54;27.50;;;5.30;;
31537;SDS011;18147;51.952;6.146;2023-02-03T14:34:26;37.88;;;5.80;;
31537;SDS011;18147;51.952;6.146;2023-02-03T14:36:55;25.65;;;6.57;;
31537;SDS011;18147;51.952;6.146;2023-02-03T14:45:19;26.80;;;5.00;;
31537;SDS011;18147;51.952;6.146;2023-02-03T14:59:00;24.40;;;4.55;;
31537;SDS011;18147;51.952;6.146;2023-02-03T15:04:42;31.90;;;6.75;;
31537;SDS011;18147;51.952;6.146;2023-02-03T15:06:49;25.05;;;5.25;;
31537;SDS011;18147;51.952;6.146;2023-02-03T15:14:43;26.98;;;4.55;;
31537;SDS011;18147;51.952;6.146;2023-02-03T15:17:12;33.35;;;5.85;;
31537;SDS011;18147;51.952;6.146;2023-02-03T15:19:44;25.45;;;4.75;;
31537;SDS011;18147;51.952;6.146;2023-02-03T15:24:58;19.40;;;4.20;;
31537;SDS011;18147;51.952;6.146;2023-02-03T15:27:27;25.98;;;4.65;;
31537;SDS011;18147;51.952;6.146;2023-02-03T15:29:54;28.83;;;5.20;;
31537;SDS011;18147;51.952;6.146;2023-02-03T15:32:36;24.75;;;4.95;;
31537;SDS011;18147;51.952;6.146;2023-02-03T15:37:44;36.20;;;6.40;;
31537;SDS011;18147;51.952;6.146;2023-02-03T15:40:18;34.67;;;4.65;;
31537;SDS011;18147;51.952;6.146;2023-02-03T15:46:19;26.83;;;4.47;;
31537;SDS011;18147;51.952;6.146;2023-02-03T15:48:41;29.38;;;5.32;;
31537;SDS011;18147;51.952;6.146;2023-02-03T15:51:17;37.40;;;9.23;;
31537;SDS011;18147;51.952;6.146;2023-02-03T15:54:06;41.03;;;8.65;;
31537;SDS011;18147;51.952;6.146;2023-02-03T15:56:47;34.78;;;8.70;;
31537;SDS011;18147;51.952;6.146;2023-02-03T15:59:24;50.28;;;7.25;;
31537;SDS011;18147;51.952;6.146;2023-02-03T16:01:55;23.83;;;5.70;;
31537;SDS011;18147;51.952;6.146;2023-02-03T16:04:21;33.13;;;5.60;;
31537;SDS011;18147;51.952;6.146;2023-02-03T16:06:49;20.83;;;4.03;;
31537;SDS011;18147;51.952;6.146;2023-02-03T16:14:52;25.25;;;4.88;;
31537;SDS011;18147;51.952;6.146;2023-02-03T16:17:21;27.60;;;5.88;;
31537;SDS011;18147;51.952;6.146;2023-02-03T16:19:47;27.70;;;4.50;;
31537;SDS011;18147;51.952;6.146;2023-02-03T16:22:25;31.88;;;6.07;;
31537;SDS011;18147;51.952;6.146;2023-02-03T16:24:57;29.77;;;6.25;;
31537;SDS011;18147;51.952;6.146;2023-02-03T16:27:55;33.17;;;6.55;;
31537;SDS011;18147;51.952;6.146;2023-02-03T16:30:52;31.50;;;5.07;;
31537;SDS011;18147;51.952;6.146;2023-02-03T16:33:45;38.70;;;6.68;;
31537;SDS011;18147;51.952;6.146;2023-02-03T16:36:30;21.45;;;4.68;;
31537;SDS011;18147;51.952;6.146;2023-02-03T16:39:14;33.17;;;7.63;;
31537;SDS011;18147;51.952;6.146;2023-02-03T16:41:59;32.35;;;5.03;;
31537;SDS011;18147;51.952;6.146;2023-02-03T16:44:44;33.42;;;6.15;;
31537;SDS011;18147;51.952;6.146;2023-02-03T16:47:29;32.28;;;6.85;;
31537;SDS011;18147;51.952;6.146;2023-02-03T16:50:21;35.20;;;6.63;;
31537;SDS011;18147;51.952;6.146;2023-02-03T16:53:16;32.72;;;7.95;;
31537;SDS011;18147;51.952;6.146;2023-02-03T16:55:47;61.05;;;8.85;;
31537;SDS011;18147;51.952;6.146;2023-02-03T16:58:14;49.72;;;6.40;;
31537;SDS011;18147;51.952;6.146;2023-02-03T17:00:40;28.65;;;6.68;;
31537;SDS011;18147;51.952;6.146;2023-02-03T17:03:08;40.97;;;8.13;;
31537;SDS011;18147;51.952;6.146;2023-02-03T17:05:37;63.05;;;11.50;;
31537;SDS011;18147;51.952;6.146;2023-02-03T17:08:04;33.10;;;6.35;;
31537;SDS011;18147;51.952;6.146;2023-02-03T17:10:31;29.20;;;6.88;;
31537;SDS011;18147;51.952;6.146;2023-02-03T17:12:59;34.13;;;7.13;;
31537;SDS011;18147;51.952;6.146;2023-02-03T17:15:25;45.22;;;7.32;;
31537;SDS011;18147;51.952;6.146;2023-02-03T17:17:50;44.70;;;8.43;;
31537;SDS011;18147;51.952;6.146;2023-02-03T17:20:16;35.83;;;9.32;;
31537;SDS011;18147;51.952;6.146;2023-02-03T17:22:42;41.67;;;8.55;;
31537;SDS011;18147;51.952;6.146;2023-02-03T17:25:08;28.75;;;6.88;;
31537;SDS011;18147;51.952;6.146;2023-02-03T17:27:33;34.63;;;6.28;;
31537;SDS011;18147;51.952;6.146;2023-02-03T17:29:59;32.72;;;8.68;;
31537;SDS011;18147;51.952;6.146;2023-02-03T17:32:28;39.80;;;7.70;;
31537;SDS011;18147;51.952;6.146;2023-02-03T17:34:54;36.08;;;8.32;;
31537;SDS011;18147;51.952;6.146;2023-02-03T17:37:19;41.53;;;7.43;;